Аэропорт: Уральск. Уральск

ICAO: UARR

METAR:
2018/05/20 23:00
UARR 202300Z 00000MPS 9999 SCT050CB OVC130 17/15 Q1016 R22/190065 NOSIG RMK QFE758/1011
METAR:
2015/07/31 21:21
TAF 
      AMD TAF 
      AMD UARR 312316Z 3121/0109 VRB02MPS CAVOK 
      TEMPO 0106/0109 18005MPS